Time;durP1;ratioP1;P1;durP2;ratioP2;P2;SDS_P1;SDS_P2;PMS_P1;PMS_P2;Temp;Humidity;BMP_temperature;BMP_pressure;BME280_temperature;BME280_humidity;BME280_pressure;Samples;Min_cycle;Max_cycle;Signal;HPM_P1;HPM_P2
2021/04/14 00:00:38;;;;;;;2.63;0.60;;;1.50;92.50;;;3.39;82.82;103247.66;5028524;28;96745;-66
2021/04/14 00:03:11;;;;;;;0.27;0.27;;;1.40;92.50;;;3.45;83.88;103244.22;5025627;28;97016;-65
2021/04/14 00:05:40;;;;;;;0.50;0.50;;;1.40;92.50;;;3.55;83.29;103242.03;5025321;28;97955;-66
2021/04/14 00:08:08;;;;;;;0.70;0.70;;;1.40;92.50;;;3.61;81.80;103243.94;5024019;28;96811;-65
2021/04/14 00:10:38;;;;;;;0.10;0.10;;;1.30;92.40;;;3.61;81.97;103243.94;5023317;27;97242;-65
2021/04/14 00:13:10;;;;;;;0.70;0.60;;;1.30;92.50;;;3.61;81.49;103241.28;5021561;28;96888;-66
2021/04/14 00:15:44;;;;;;;0.20;0.20;;;1.30;92.50;;;3.59;82.60;103245.94;5029728;27;98400;-63
2021/04/14 00:18:12;;;;;;;0.32;0.32;;;1.30;92.50;;;3.57;82.31;103237.34;5025813;28;97806;-63
2021/04/14 00:20:40;;;;;;;0.20;0.20;;;1.30;92.60;;;3.57;81.56;103234.72;5025268;27;96761;-63
2021/04/14 00:23:09;;;;;;;0.57;0.57;;;1.20;92.50;;;3.51;81.81;103248.75;5027837;27;97290;-64
2021/04/14 00:25:42;;;;;;;0.20;0.20;;;1.20;92.50;;;3.50;81.56;103236.50;5024234;27;98173;-65
2021/04/14 00:28:23;;;;;;;1.70;1.37;;;1.20;92.60;;;3.47;82.45;103240.38;5042525;27;97764;-65
2021/04/14 00:30:53;;;;;;;0.30;0.30;;;1.20;92.60;;;3.44;82.53;103239.94;5032182;28;96796;-65
2021/04/14 00:33:22;;;;;;;0.57;0.57;;;1.20;92.50;;;3.40;82.12;103236.84;5028781;28;97069;-65
2021/04/14 00:35:53;;;;;;;1.00;0.93;;;1.10;92.60;;;3.39;81.67;103235.22;5028835;27;96824;-65
2021/04/14 00:38:23;;;;;;;0.32;0.32;;;1.10;92.60;;;3.36;82.82;103230.31;5028893;27;98105;-65
2021/04/14 00:40:57;;;;;;;2.92;1.08;;;1.10;92.60;;;3.37;81.84;103228.50;5022564;28;97060;-65
2021/04/14 00:43:38;;;;;;;0.20;0.20;;;1.10;92.60;;;3.34;82.67;103228.88;5021304;28;96736;-65
2021/04/14 00:46:08;;;;;;;0.32;0.32;;;1.00;92.60;;;3.32;81.59;103222.94;5015230;28;98476;-65
2021/04/14 00:48:36;;;;;;;7.53;4.43;;;1.10;92.60;;;3.29;82.19;103233.91;5028634;28;97471;-65
2021/04/14 00:51:06;;;;;;;0.10;0.10;;;1.00;92.60;;;3.28;81.86;103226.97;5032762;27;97634;-65
2021/04/14 00:53:38;;;;;;;0.98;0.98;;;1.00;92.60;;;3.23;81.99;103224.09;5014153;28;97036;-65
2021/04/14 00:56:07;;;;;;;0.50;0.50;;;1.00;92.60;;;3.23;82.96;103230.22;5023596;28;97906;-65
2021/04/14 00:58:34;;;;;;;0.30;0.30;;;1.00;92.60;;;3.23;82.04;103227.56;5022599;27;96834;-65
2021/04/14 01:01:10;;;;;;;1.42;1.00;;;1.00;92.60;;;3.19;82.46;103228.13;5027981;27;97681;-65
2021/04/14 01:03:39;;;;;;;0.35;0.35;;;0.90;92.60;;;3.16;83.05;103225.88;5026674;28;97033;-65
2021/04/14 01:06:13;;;;;;;0.22;0.22;;;0.90;92.60;;;3.14;82.45;103223.41;5026989;28;97239;-65
2021/04/14 01:08:41;;;;;;;0.20;0.20;;;0.90;92.60;;;3.14;82.58;103225.25;5029451;28;96786;-66
2021/04/14 01:11:14;;;;;;;0.52;0.52;;;0.90;92.60;;;3.12;82.59;103227.28;5023214;28;97268;-65
2021/04/14 01:13:43;;;;;;;;;;;0.90;92.60;;;3.09;81.30;103223.16;5032433;27;96990;-65
2021/04/14 01:16:13;;;;;;;0.20;0.20;;;0.80;92.60;;;3.04;82.05;103222.13;5019295;28;97129;-65
2021/04/14 01:18:42;;;;;;;0.30;0.30;;;0.80;92.60;;;2.93;81.95;103221.81;5026357;28;96894;-65
2021/04/14 01:21:19;;;;;;;0.38;0.38;;;0.80;92.60;;;3.08;82.87;103221.53;5028923;28;96835;-65
2021/04/14 01:23:46;;;;;;;2.35;0.55;;;0.80;92.60;;;2.90;82.93;103220.38;5027370;28;97341;-65
2021/04/14 01:26:15;;;;;;;4.00;1.45;;;0.70;92.60;;;2.92;82.75;103217.53;5023697;27;98065;-65
2021/04/14 01:28:47;;;;;;;0.80;0.65;;;0.70;92.60;;;2.91;82.23;103219.34;5027172;27;97693;-65
2021/04/14 01:31:32;;;;;;;0.45;0.45;;;0.70;92.60;;;2.82;82.01;103220.50;5009594;28;97157;-65
2021/04/14 01:34:05;;;;;;;0.20;0.20;;;0.70;92.60;;;2.84;82.06;103223.78;5021297;28;96955;-66
2021/04/14 01:36:34;;;;;;;0.20;0.20;;;0.70;92.70;;;2.84;82.09;103221.13;5024622;27;98045;-65
2021/04/14 01:39:06;;;;;;;0.57;0.57;;;0.70;92.70;;;2.84;83.02;103225.59;5026628;28;97656;-65
2021/04/14 01:41:35;;;;;;;0.38;0.35;;;0.60;92.70;;;2.80;82.47;103224.34;5024431;27;97285;-65
2021/04/14 01:44:09;;;;;;;0.20;0.20;;;0.60;92.70;;;2.82;83.32;103233.75;5025314;28;97585;-65
2021/04/14 01:46:39;;;;;;;0.20;0.20;;;0.60;92.70;;;2.79;81.99;103225.34;5021717;28;97938;-66
2021/04/14 01:49:09;;;;;;;0.35;0.35;;;0.60;92.70;;;2.72;83.15;103222.66;5023698;27;98744;-65
2021/04/14 01:51:38;;;;;;;0.20;0.20;;;0.60;92.70;;;2.58;83.09;103222.72;5028421;28;96796;-65
2021/04/14 01:54:07;;;;;;;0.30;0.30;;;0.50;92.70;;;2.68;83.52;103225.88;5031317;28;97031;-66
2021/04/14 01:56:35;;;;;;;5.47;0.93;;;0.50;92.70;;;2.60;82.95;103223.34;5027172;28;97292;-66
2021/04/14 01:59:04;;;;;;;0.20;0.20;;;0.50;92.70;;;2.52;82.69;103223.44;5026682;27;96833;-65
2021/04/14 02:01:32;;;;;;;0.30;0.30;;;0.50;92.70;;;2.69;81.98;103220.38;5020291;28;96840;-66
2021/04/14 02:04:00;;;;;;;0.50;0.50;;;0.50;92.70;;;2.74;82.33;103225.09;5024230;28;96968;-65
2021/04/14 02:06:34;;;;;;;3.28;2.28;;;0.40;92.70;;;2.70;81.92;103222.00;5024685;28;98889;-65
2021/04/14 02:09:06;;;;;;;1.10;1.05;;;0.50;92.80;;;2.66;83.03;103214.66;5030337;27;98087;-66
2021/04/14 02:11:33;;;;;;;0.30;0.30;;;0.50;92.80;;;2.58;82.59;103217.44;5025489;28;96737;-65
2021/04/14 02:14:02;;;;;;;0.20;0.20;;;0.40;92.70;;;2.48;83.88;103211.59;5021510;28;97000;-65
2021/04/14 02:16:31;;;;;;;0.40;0.40;;;0.40;92.70;;;2.43;82.82;103211.34;5018374;28;96922;-65
2021/04/14 02:18:58;;;;;;;0.28;0.28;;;0.40;92.80;;;2.85;82.17;103212.19;5027152;27;97779;-65
2021/04/14 02:21:26;;;;;;;0.20;0.20;;;0.40;92.80;;;2.91;80.62;103213.25;5025049;27;96694;-65
2021/04/14 02:23:54;;;;;;;0.20;0.20;;;0.30;92.70;;;2.90;80.88;103212.41;5014258;28;97289;-65
2021/04/14 02:26:24;;;;;;;0.90;0.90;;;0.40;92.80;;;2.88;81.29;103209.16;5029966;27;97912;-66
2021/04/14 02:28:52;;;;;;;0.30;0.30;;;0.30;92.80;;;2.88;81.03;103201.22;5024957;27;97077;-65
2021/04/14 02:31:30;;;;;;;7.57;0.75;;;0.30;92.80;;;2.86;80.87;103205.88;5025157;28;97373;-65
2021/04/14 02:34:02;;;;;;;0.30;0.30;;;0.30;92.80;;;2.82;81.36;103206.44;5028438;27;96937;-65
2021/04/14 02:36:33;;;;;;;0.20;0.20;;;0.40;92.80;;;2.84;81.22;103199.94;5028476;28;98252;-65
2021/04/14 02:39:04;;;;;;;0.20;0.20;;;0.30;92.90;;;2.86;81.92;103207.72;5029436;27;96757;-65
2021/04/14 02:41:34;;;;;;;0.75;0.75;;;0.30;92.90;;;2.84;82.16;103199.13;5030811;28;97164;-65
2021/04/14 02:44:04;;;;;;;0.30;0.30;;;0.30;92.80;;;2.85;81.79;103195.47;5024069;28;97007;-66
2021/04/14 02:46:32;;;;;;;0.50;0.50;;;0.40;92.80;;;2.81;81.95;103202.16;5027831;27;97898;-65
2021/04/14 02:49:04;;;;;;;0.32;0.32;;;0.30;92.80;;;2.73;81.71;103205.78;5029646;28;97596;-65
2021/04/14 02:51:53;;;;;;;0.70;0.70;;;0.30;92.80;;;2.62;82.32;103208.91;5030700;28;98643;-65
2021/04/14 02:54:22;;;;;;;0.20;0.20;;;0.30;92.80;;;2.69;82.07;103204.47;5028353;28;97366;-65
2021/04/14 02:56:50;;;;;;;0.22;0.22;;;0.30;92.80;;;2.68;81.35;103209.97;5021275;27;98015;-66
2021/04/14 02:59:18;;;;;;;4.50;3.25;;;0.30;92.80;;;2.64;81.64;103195.50;5024003;27;98810;-65
2021/04/14 03:01:45;;;;;;;0.20;0.20;;;0.20;92.80;;;2.78;80.89;103195.44;5024651;28;97292;-66
2021/04/14 03:04:15;;;;;;;0.70;0.70;;;0.20;92.80;;;2.73;80.42;103197.84;5030399;28;96747;-65
2021/04/14 03:06:43;;;;;;;0.20;0.20;;;0.20;92.80;;;2.69;80.97;103196.53;5027555;28;97116;-65
2021/04/14 03:09:11;;;;;;;0.30;0.30;;;0.20;92.80;;;2.68;80.31;103202.03;5026346;27;96723;-65
2021/04/14 03:11:38;;;;;;;0.30;0.30;;;0.20;92.80;;;2.67;81.20;103195.13;5021824;28;96961;-65
2021/04/14 03:14:07;;;;;;;0.35;0.35;;;0.10;92.80;;;2.61;80.37;103191.38;5026594;28;96910;-65
2021/04/14 03:16:35;;;;;;;0.63;0.63;;;0.10;92.80;;;2.59;80.47;103189.97;5020913;27;98138;-65
2021/04/14 03:19:04;;;;;;;0.52;0.52;;;0.10;92.80;;;2.52;81.03;103184.59;5030600;28;96744;-65
2021/04/14 03:21:32;;;;;;;0.30;0.30;;;0.10;92.80;;;2.50;81.89;103183.97;5027970;27;97127;-67
2021/04/14 03:24:00;;;;;;;0.40;0.40;;;0.00;92.80;;;2.54;81.52;103179.94;5024533;27;96862;-65
2021/04/14 03:26:31;;;;;;;0.67;0.67;;;0.10;92.80;;;2.44;81.57;103183.91;5022082;27;98195;-65
2021/04/14 03:29:00;;;;;;;0.60;0.60;;;0.00;92.80;;;2.19;81.74;103179.97;5026080;28;97548;-65
2021/04/14 03:31:32;;;;;;;0.20;0.20;;;0.00;92.80;;;2.10;82.46;103184.56;5025687;28;97181;-65
2021/04/14 03:34:03;;;;;;;0.85;0.75;;;0.00;92.80;;;2.06;83.31;103188.56;5025679;28;96831;-65
2021/04/14 03:36:31;;;;;;;0.32;0.32;;;0.00;92.80;;;1.92;83.99;103184.16;5026074;27;96852;-65
2021/04/14 03:38:59;;;;;;;0.77;0.77;;;-0.10;92.80;;;1.97;83.57;103194.19;5018775;28;97107;-65
2021/04/14 03:41:31;;;;;;;0.20;0.20;;;-0.10;92.80;;;1.95;82.92;103191.69;5023729;28;97416;-65
2021/04/14 03:43:59;;;;;;;1.60;1.50;;;-0.10;92.80;;;1.86;82.93;103195.47;5024406;28;96958;-65
2021/04/14 03:46:33;;;;;;;0.30;0.30;;;-0.10;92.80;;;1.85;83.93;103187.69;5027309;28;98011;-65
2021/04/14 03:49:03;;;;;;;0.30;0.30;;;-0.10;92.80;;;1.94;83.05;103191.88;5026546;28;97220;-65
2021/04/14 03:51:33;;;;;;;0.30;0.30;;;-0.20;92.80;;;2.03;83.06;103188.13;5022238;27;96919;-65
2021/04/14 03:54:02;;;;;;;0.65;0.65;;;-0.20;92.90;;;2.06;81.88;103191.22;5024740;28;97194;-66
2021/04/14 03:56:50;;;;;;;0.60;0.60;;;-0.20;92.90;;;2.05;82.56;103188.78;5028686;28;97780;-65
2021/04/14 03:59:18;;;;;;;1.17;1.10;;;-0.20;92.90;;;2.06;82.86;103188.56;5032445;28;97877;-66
2021/04/14 04:01:46;;;;;;;0.30;0.30;;;-0.20;92.90;;;2.04;83.11;103193.22;5020729;27;96815;-66
2021/04/14 04:04:19;;;;;;;0.60;0.60;;;-0.20;92.90;;;2.02;82.40;103191.78;5028786;28;97306;-66
2021/04/14 04:06:47;;;;;;;0.90;0.90;;;-0.30;92.90;;;2.00;83.19;103197.25;5025347;28;97128;-65
2021/04/14 04:09:15;;;;;;;1.27;1.17;;;-0.20;92.90;;;1.94;83.58;103192.72;5029845;27;97891;-66
2021/04/14 04:11:43;;;;;;;0.30;0.30;;;-0.30;92.90;;;1.77;82.96;103190.47;5006905;28;96868;-65
2021/04/14 04:14:12;;;;;;;0.93;0.93;;;-0.30;92.90;;;1.74;84.00;103188.19;5025163;27;97245;-65
2021/04/14 04:16:52;;;;;;;0.47;0.47;;;-0.30;92.90;;;1.71;84.02;103186.72;5023731;28;97677;-66
2021/04/14 04:19:21;;;;;;;1.65;1.15;;;-0.30;92.90;;;1.70;83.81;103189.56;5027211;28;97668;-65
2021/04/14 04:21:48;;;;;;;0.32;0.32;;;-0.30;92.90;;;1.68;83.12;103192.38;5031854;27;96701;-65
2021/04/14 04:24:16;;;;;;;0.30;0.30;;;-0.30;92.90;;;1.64;83.23;103185.81;5029695;28;97027;-65
2021/04/14 04:26:43;;;;;;;0.30;0.30;;;-0.30;92.90;;;1.68;83.54;103191.56;5029265;27;96959;-67
2021/04/14 04:29:11;;;;;;;0.30;0.30;;;-0.30;92.90;;;1.73;83.57;103194.47;5030816;27;98175;-65
2021/04/14 04:31:39;;;;;;;0.40;0.40;;;-0.30;93.00;;;1.75;82.96;103198.56;5012373;28;97393;-66
2021/04/14 04:34:07;;;;;;;2.38;2.17;;;-0.30;93.00;;;1.78;83.27;103202.66;5026368;28;96987;-66
2021/04/14 04:36:35;;;;;;;1.27;0.57;;;-0.30;93.00;;;1.96;84.07;103205.75;5018823;28;98432;-66
2021/04/14 04:39:06;;;;;;;0.20;0.20;;;-0.30;93.00;;;2.33;81.50;103209.00;5005024;28;96905;-65
2021/04/14 04:41:35;;;;;;;1.00;0.80;;;-0.30;93.10;;;2.38;80.49;103217.19;5020692;28;96882;-67
2021/04/14 04:44:05;;;;;;;0.55;0.55;;;-0.30;93.00;;;2.34;81.16;103217.78;5017324;28;97037;-66
2021/04/14 04:46:32;;;;;;;1.17;1.08;;;-0.20;93.00;;;2.28;81.31;103215.88;5028089;28;98989;-65
2021/04/14 04:49:00;;;;;;;0.17;0.17;;;-0.20;93.00;;;2.28;82.30;103221.97;5028566;28;97699;-65
2021/04/14 04:51:31;;;;;;;0.60;0.60;;;-0.20;93.00;;;2.34;82.02;103225.72;5030363;28;96893;-66
2021/04/14 04:53:59;;;;;;;0.30;0.30;;;-0.20;93.00;;;2.09;82.59;103227.03;5014912;28;96985;-66
2021/04/14 04:56:28;;;;;;;0.75;0.75;;;-0.20;93.00;;;1.97;83.95;103231.19;5031156;28;97902;-66
2021/04/14 04:58:56;;;;;;;2.85;1.45;;;-0.20;93.00;;;1.98;83.04;103230.19;5036473;27;97465;-66
2021/04/14 05:01:24;;;;;;;0.40;0.40;;;-0.20;93.10;;;2.05;84.58;103231.06;5027313;27;97231;-66
2021/04/14 05:03:54;;;;;;;2.28;1.27;;;-0.10;93.20;;;2.15;84.78;103236.88;5024092;28;97492;-66
2021/04/14 05:06:22;;;;;;;2.08;0.82;;;-0.10;93.30;;;2.27;84.46;103233.56;5022417;27;96982;-65
2021/04/14 05:08:50;;;;;;;0.52;0.52;;;0.00;93.40;;;2.37;84.84;103236.72;5024929;27;97287;-65
2021/04/14 05:11:18;;;;;;;1.17;1.08;;;0.10;93.50;;;2.49;85.17;103234.41;5032029;28;96906;-66
2021/04/14 05:13:46;;;;;;;0.65;0.65;;;0.20;93.50;;;2.63;85.58;103239.66;5022096;28;96992;-66
2021/04/14 05:16:13;;;;;;;0.30;0.30;;;0.30;93.60;;;2.78;85.80;103240.41;5023747;27;98069;-66
2021/04/14 05:18:41;;;;;;;0.60;0.60;;;0.40;93.60;;;2.97;85.51;103244.25;5027099;28;96909;-66
2021/04/14 05:21:09;;;;;;;0.63;0.47;;;0.50;93.70;;;3.10;83.89;103240.69;5022872;28;97100;-66
2021/04/14 05:23:38;;;;;;;0.63;0.63;;;0.60;93.70;;;3.16;83.79;103239.94;5027378;28;97738;-67
2021/04/14 05:26:07;;;;;;;0.30;0.30;;;0.70;93.70;;;3.21;84.71;103240.19;5027185;27;97734;-66
2021/04/14 05:28:35;;;;;;;0.90;0.90;;;0.80;93.70;;;3.31;84.47;103247.81;5023716;27;98805;-66
2021/04/14 05:31:04;;;;;;;1.40;1.38;;;0.90;93.70;;;3.46;84.21;103246.69;5023683;28;97311;-66
2021/04/14 05:33:31;;;;;;;0.30;0.30;;;0.90;93.70;;;3.69;83.92;103252.53;5023830;27;97216;-66
2021/04/14 05:35:59;;;;;;;1.08;1.05;;;1.00;93.60;;;3.87;83.32;103247.53;5027756;27;98064;-66
2021/04/14 05:38:32;;;;;;;0.40;0.40;;;1.10;93.60;;;3.94;82.71;103247.59;5029377;28;97772;-66
2021/04/14 05:41:00;;;;;;;0.38;0.38;;;1.20;93.50;;;3.97;83.03;103244.53;5022253;27;98578;-66
2021/04/14 05:43:38;;;;;;;0.60;0.60;;;1.30;93.50;;;4.09;83.62;103254.38;5027200;27;97068;-66
2021/04/14 05:46:10;;;;;;;6.10;3.00;;;1.40;93.60;;;4.25;83.32;103240.75;5024585;28;96927;-66
2021/04/14 05:48:47;;;;;;;0.57;0.57;;;1.50;93.60;;;4.44;82.25;103244.50;5018058;28;99162;-66
2021/04/14 05:51:22;;;;;;;0.40;0.40;;;1.70;93.60;;;4.68;82.69;103252.75;5026921;27;96817;-66
2021/04/14 05:53:52;;;;;;;0.50;0.50;;;1.80;93.50;;;5.07;81.85;103255.44;5024887;28;96929;-66
2021/04/14 05:56:23;;;;;;;1.13;1.02;;;2.10;93.50;;;5.47;80.60;103257.88;5025301;28;97892;-66
2021/04/14 05:58:56;;;;;;;0.85;0.77;;;2.60;93.20;;;5.66;80.73;103254.34;5026575;27;96782;-66
2021/04/14 06:01:29;;;;;;;0.70;0.60;;;3.00;92.70;;;5.92;79.54;103262.28;5025798;27;97061;-66
2021/04/14 06:04:06;;;;;;;0.87;0.83;;;3.70;92.40;;;5.91;80.50;103263.31;5027368;27;97029;-66
2021/04/14 06:06:40;;;;;;;1.33;1.23;;;3.80;91.40;;;6.28;79.71;103266.06;5039969;27;98099;-67
2021/04/14 06:09:09;;;;;;;2.80;0.85;;;3.90;91.50;;;7.99;74.53;103275.97;5026388;28;98326;-67
2021/04/14 06:11:38;;;;;;;0.88;0.82;;;4.30;91.30;;;7.98;75.93;103269.81;5029563;27;96882;-64
2021/04/14 06:14:12;;;;;;;0.60;0.60;;;4.50;91.20;;;9.52;71.78;103250.91;5025377;27;96899;-65
2021/04/14 06:16:39;;;;;;;0.80;0.80;;;4.90;91.10;;;10.67;68.66;103258.66;5018153;27;97791;-65
2021/04/14 06:19:08;;;;;;;1.77;1.67;;;5.40;90.70;;;11.21;67.70;103251.56;5021804;27;98551;-64
2021/04/14 06:21:37;;;;;;;2.85;1.25;;;6.00;90.40;;;13.23;63.05;103254.56;5023117;28;96883;-64
2021/04/14 06:24:08;;;;;;;5.53;2.55;;;6.60;90.20;;;15.58;57.80;103256.03;5023399;28;97383;-65
2021/04/14 06:26:41;;;;;;;3.03;2.67;;;7.50;89.80;;;15.77;58.15;103249.78;5018023;27;97352;-65
2021/04/14 06:29:30;;;;;;;3.63;2.27;;;8.50;88.70;;;17.64;56.47;103250.66;5003206;28;96994;-66
2021/04/14 06:31:59;;;;;;;8.77;3.05;;;10.30;87.10;;;19.55;54.44;103244.06;5017425;28;96749;-65
2021/04/14 06:34:32;;;;;;;15.48;2.50;;;12.10;83.90;;;22.37;48.85;103250.13;5004636;28;97404;-65
2021/04/14 06:37:00;;;;;;;3.28;2.22;;;14.10;79.70;;;24.31;45.89;103243.25;5025867;27;98423;-65
2021/04/14 06:39:37;;;;;;;5.18;2.75;;;15.80;76.50;;;25.92;44.28;103236.09;5026526;28;99663;-66
2021/04/14 06:42:39;;;;;;;5.32;1.73;;;17.50;73.80;;;27.44;42.84;103234.59;5021229;28;96778;-65
2021/04/14 06:45:20;;;;;;;7.72;2.17;;;19.00;71.60;;;29.12;41.51;103239.13;5019755;28;97090;-66
2021/04/14 06:48:15;;;;;;;4.22;2.13;;;20.50;69.80;;;30.69;39.75;103224.19;5008450;28;96783;-67
2021/04/14 06:50:50;;;;;;;2.90;1.88;;;21.70;68.40;;;31.88;39.22;103223.28;5019134;27;99676;-66
2021/04/14 06:53:51;;;;;;;3.63;2.30;;;22.90;67.40;;;33.18;38.37;103217.06;5014062;28;96876;-65
2021/04/14 06:56:22;;;;;;;5.63;2.67;;;24.00;66.60;;;34.19;37.74;103225.31;5020497;28;96881;-66
2021/04/14 06:59:00;;;;;;;2.40;1.55;;;24.90;65.70;;;35.06;36.93;103222.03;5024974;28;97100;-66
2021/04/14 07:01:38;;;;;;;2.67;1.52;;;25.70;64.90;;;35.71;36.74;103216.31;5020604;28;97899;-66
2021/04/14 07:04:12;;;;;;;6.85;1.80;;;26.40;64.60;;;36.40;36.96;103211.91;5031656;28;97056;-66
2021/04/14 07:06:46;;;;;;;3.85;1.55;;;27.20;64.20;;;37.05;36.74;103208.59;5020431;28;96921;-66
2021/04/14 07:09:29;;;;;;;3.53;1.58;;;27.80;64.10;;;37.65;36.11;103207.56;5023415;28;98024;-66
2021/04/14 07:12:12;;;;;;;3.42;1.65;;;28.40;63.70;;;38.30;35.90;103210.28;5027153;28;97748;-67
2021/04/14 07:14:41;;;;;;;1.40;1.27;;;29.00;63.80;;;38.77;35.56;103208.84;5019977;28;98034;-66
2021/04/14 07:17:29;;;;;;;6.40;1.40;;;29.40;63.50;;;39.28;35.32;103203.16;5024566;27;96739;-66
2021/04/14 07:20:27;;;;;;;2.33;1.25;;;29.90;62.80;;;39.75;35.23;103204.31;5039975;27;97380;-66
2021/04/14 07:23:19;;;;;;;1.85;1.25;;;30.30;62.60;;;40.26;35.30;103197.63;5018147;28;97284;-66
2021/04/14 07:25:58;;;;;;;5.00;1.10;;;30.70;62.90;;;40.60;35.15;103192.94;5027684;28;97074;-64
2021/04/14 07:29:09;;;;;;;2.00;1.45;;;31.10;63.40;;;40.88;34.90;103196.88;5025393;27;96929;-63
2021/04/14 07:31:46;;;;;;;1.60;0.68;;;31.30;62.40;;;41.30;34.80;103185.78;5028728;28;97996;-66
2021/04/14 07:34:51;;;;;;;0.70;0.70;;;31.60;63.20;;;41.73;34.21;103179.41;5027516;27;97640;-64
2021/04/14 07:37:31;;;;;;;0.65;0.60;;;31.90;62.90;;;41.78;34.06;103185.25;5025182;28;96736;-65
2021/04/14 07:40:18;;;;;;;1.52;0.80;;;32.10;62.80;;;42.09;34.21;103188.94;5025392;28;97165;-66
2021/04/14 07:43:18;;;;;;;2.00;0.88;;;32.30;63.10;;;42.38;34.23;103189.38;5007508;28;97052;-63
2021/04/14 07:45:50;;;;;;;4.60;1.17;;;32.40;63.20;;;42.49;33.71;103186.16;5031097;27;97075;-66
2021/04/14 07:48:27;;;;;;;0.98;0.68;;;32.50;63.00;;;42.72;34.09;103185.59;5023712;27;97879;-63
2021/04/14 07:51:00;;;;;;;3.45;0.98;;;32.60;63.30;;;42.83;34.14;103183.94;5023321;27;97290;-66
2021/04/14 07:53:36;;;;;;;3.83;1.40;;;32.70;63.50;;;42.88;33.17;103183.31;5020771;28;98086;-66
2021/04/14 07:56:09;;;;;;;1.85;1.10;;;32.70;63.20;;;42.86;33.66;103185.81;5005276;28;99222;-66
2021/04/14 07:58:42;;;;;;;3.15;0.75;;;32.70;63.10;;;42.76;32.61;103177.78;5020334;28;96990;-66
2021/04/14 08:01:15;;;;;;;0.73;0.50;;;32.60;63.20;;;42.85;33.13;103175.78;5015992;28;96790;-66
2021/04/14 08:03:44;;;;;;;0.20;0.20;;;32.50;63.30;;;42.94;32.50;103173.00;5011107;28;98297;-67
2021/04/14 08:06:19;;;;;;;0.20;0.20;;;32.50;63.20;;;42.82;32.51;103173.09;5024559;27;97818;-66
2021/04/14 08:08:49;;;;;;;0.10;0.10;;;32.40;62.20;;;42.88;32.77;103169.22;5020322;27;96808;-66
2021/04/14 08:11:30;;;;;;;1.50;0.35;;;32.40;62.60;;;43.06;31.65;103166.44;4994009;28;96858;-66
2021/04/14 08:14:10;;;;;;;0.22;0.22;;;32.30;62.30;;;43.09;31.85;103165.47;5025058;27;96982;-66
2021/04/14 08:16:42;;;;;;;7.10;1.08;;;32.30;61.90;;;43.05;32.35;103159.22;5014704;28;97634;-66
2021/04/14 08:19:24;;;;;;;0.40;0.40;;;32.30;62.70;;;43.18;31.87;103162.66;5007456;28;97383;-66
2021/04/14 08:22:00;;;;;;;0.50;0.15;;;32.30;62.40;;;43.23;31.21;103157.22;5012255;28;97405;-66
2021/04/14 08:24:36;;;;;;;0.13;0.13;;;32.30;62.10;;;43.35;31.60;103153.44;5016754;28;96950;-66
2021/04/14 08:27:19;;;;;;;0.57;0.10;;;32.30;62.10;;;39.06;37.82;103159.22;5013501;28;96780;-66
2021/04/14 08:30:00;;;;;;;1.52;0.30;;;31.90;61.70;;;33.53;48.19;103165.03;5002085;28;97467;-66
2021/04/14 08:32:39;;;;;;;9.25;0.95;;;30.80;62.60;;;37.48;38.99;103166.72;5011109;28;96914;-66
2021/04/14 08:35:27;;;;;;;0.65;0.28;;;29.60;64.10;;;39.32;34.88;103156.13;5024500;28;98201;-66
2021/04/14 08:38:04;;;;;;;0.75;0.50;;;29.50;64.40;;;37.68;37.37;103163.50;5026132;27;97601;-65
2021/04/14 08:40:42;;;;;;;0.28;0.28;;;29.30;63.70;;;31.99;47.75;103161.13;5028819;27;96899;-65
2021/04/14 08:43:14;;;;;;;0.77;0.47;;;28.60;63.50;;;28.74;54.49;103156.38;5028722;27;97270;-66
2021/04/14 08:46:12;;;;;;;0.45;0.45;;;27.40;63.70;;;31.49;46.74;103153.69;5027165;27;97900;-66
2021/04/14 08:48:45;;;;;;;0.00;0.00;;;26.30;66.70;;;33.36;42.69;103159.50;5016691;28;96863;-65
2021/04/14 08:51:17;;;;;;;0.52;0.20;;;25.80;68.00;;;29.58;50.56;103157.84;5026048;28;96761;-67
2021/04/14 08:53:48;;;;;;;6.38;0.55;;;25.50;68.10;;;26.23;57.78;103161.25;5031833;27;97008;-67
2021/04/14 08:56:17;;;;;;;0.37;0.37;;;24.60;67.50;;;24.12;61.95;103162.66;5030774;28;98135;-66
2021/04/14 08:58:50;;;;;;;0.35;0.35;;;23.60;67.10;;;23.01;63.45;103161.59;5022620;28;96868;-66
2021/04/14 09:01:17;;;;;;;1.00;0.50;;;22.40;67.90;;;30.25;46.09;103160.38;5023006;28;97802;-67
2021/04/14 09:03:48;;;;;;;3.50;0.43;;;22.10;73.00;;;33.34;40.30;103159.09;5023966;28;97730;-66
2021/04/14 09:06:20;;;;;;;6.85;0.30;;;22.60;73.70;;;34.77;38.06;103156.56;5023241;28;97909;-67
2021/04/14 09:08:52;;;;;;;0.47;0.22;;;23.40;73.10;;;35.22;37.79;103163.78;5026968;28;97139;-66
2021/04/14 09:11:25;;;;;;;0.40;0.17;;;24.10;72.40;;;29.05;50.77;103156.16;5028572;28;96989;-68
2021/04/14 09:14:06;;;;;;;0.38;0.38;;;24.20;71.10;;;25.63;57.97;103164.91;5025032;27;96913;-66
2021/04/14 09:16:50;;;;;;;0.43;0.20;;;23.50;69.50;;;23.31;62.03;103163.28;5012689;28;98263;-65
2021/04/14 09:19:35;;;;;;;0.08;0.08;;;22.40;68.90;;;23.48;60.28;103155.00;5017829;28;97972;-65
2021/04/14 09:22:23;;;;;;;0.00;0.00;;;21.30;69.30;;;25.74;54.45;103157.81;5024429;28;97096;-65
2021/04/14 09:24:54;;;;;;;0.38;0.10;;;20.60;73.40;;;28.72;47.70;103155.94;5021226;28;97099;-65
2021/04/14 09:27:34;;;;;;;0.82;0.30;;;20.60;76.20;;;29.88;45.78;103142.09;5021541;28;97839;-65
2021/04/14 09:30:27;;;;;;;0.10;0.10;;;21.20;76.30;;;30.49;45.48;103154.34;5027614;28;97517;-66
2021/04/14 09:33:22;;;;;;;0.00;0.00;;;22.00;75.40;;;30.92;45.47;103148.84;5022292;28;96971;-65
2021/04/14 09:36:06;;;;;;;0.15;0.13;;;22.90;74.30;;;31.21;45.52;103141.59;5024942;28;97176;-65
2021/04/14 09:38:48;;;;;;;0.93;0.73;;;23.70;73.00;;;31.17;47.20;103152.66;5031680;28;96898;-65
2021/04/14 09:41:36;;;;;;;0.47;0.35;;;24.50;72.90;;;29.35;51.49;103141.28;5022876;28;97091;-65
2021/04/14 09:44:40;;;;;;;4.90;0.68;;;24.80;71.00;;;26.52;57.81;103142.47;5024918;28;96980;-65
2021/04/14 09:47:35;;;;;;;0.20;0.10;;;24.40;70.20;;;24.67;61.09;103142.03;5024931;27;97029;-65
2021/04/14 09:50:36;;;;;;;0.30;0.25;;;23.50;69.40;;;23.20;63.09;103145.66;5011140;28;99421;-65
2021/04/14 09:53:22;;;;;;;0.03;0.03;;;22.50;69.50;;;22.03;64.10;103137.25;5005615;28;97097;-66
2021/04/14 09:55:57;;;;;;;12.55;0.82;;;21.50;69.70;;;21.22;65.69;103141.53;5026828;27;96649;-64
2021/04/14 09:58:35;;;;;;;0.00;0.00;;;20.50;70.40;;;20.60;65.31;103148.06;5028714;28;98299;-64
2021/04/14 10:01:24;;;;;;;0.10;0.10;;;19.60;70.90;;;19.94;66.05;103151.81;5033702;27;98874;-64
2021/04/14 10:04:00;;;;;;;0.22;0.10;;;18.80;71.70;;;19.23;67.42;103144.31;5003310;28;96958;-64
2021/04/14 10:06:34;;;;;;;0.00;0.00;;;18.00;72.50;;;18.60;67.84;103145.16;5022226;27;97803;-65
2021/04/14 10:09:09;;;;;;;0.10;0.10;;;17.40;73.40;;;18.30;68.12;103145.63;5022482;28;97070;-64
2021/04/14 10:11:40;;;;;;;31.15;0.50;;;16.90;74.40;;;18.73;67.73;103143.59;5022888;28;97910;-65
2021/04/14 10:14:13;;;;;;;0.00;0.00;;;16.60;75.80;;;19.91;67.30;103153.22;5023108;28;97663;-65
2021/04/14 10:16:41;;;;;;;6.33;0.90;;;16.80;78.60;;;20.93;64.67;103138.53;5025509;27;97308;-66
2021/04/14 10:19:14;;;;;;;4.85;0.50;;;17.20;79.50;;;21.12;64.89;103136.38;5020411;28;97467;-65
2021/04/14 10:21:44;;;;;;;0.80;0.32;;;17.60;79.40;;;20.78;65.11;103133.44;5026997;27;98458;-64
2021/04/14 10:24:17;;;;;;;2.08;0.47;;;17.70;78.50;;;20.12;66.47;103140.81;5030484;27;97201;-65
2021/04/14 10:26:52;;;;;;;3.30;0.73;;;17.60;77.90;;;19.51;67.63;103140.50;5026400;27;96762;-66
2021/04/14 10:29:27;;;;;;;0.00;0.00;;;17.30;77.60;;;19.09;67.67;103137.22;5018758;28;96857;-66
2021/04/14 10:31:58;;;;;;;1.33;0.30;;;17.00;77.60;;;18.71;68.41;103135.75;5017030;28;98164;-65
2021/04/14 10:34:31;;;;;;;3.75;0.22;;;16.60;78.00;;;18.56;68.43;103132.47;5019502;28;98261;-65
2021/04/14 10:37:12;;;;;;;0.55;0.55;;;16.30;78.50;;;18.22;68.69;103137.34;5029305;27;97252;-65
2021/04/14 10:39:41;;;;;;;0.10;0.10;;;16.10;78.50;;;17.96;68.89;103134.19;5022083;27;97149;-65
2021/04/14 10:42:19;;;;;;;0.00;0.00;;;15.70;78.80;;;17.62;69.37;103138.97;5023892;28;97420;-67
2021/04/14 10:44:49;;;;;;;0.10;0.10;;;15.50;78.90;;;17.16;69.85;103137.06;5018960;27;97380;-66
2021/04/14 10:47:26;;;;;;;0.10;0.10;;;15.10;78.50;;;16.88;69.06;103137.09;5026853;28;97009;-66